sensor_id;sensor_type;location;lat;lon;timestamp;temperature;humidity
74458;SHT31;62896;51.032;3.712;2023-05-07T00:03:09;17.1;74
74458;SHT31;62896;51.032;3.712;2023-05-07T00:06:29;17;74
74458;SHT31;62896;51.032;3.712;2023-05-07T00:09:49;17;74
74458;SHT31;62896;51.032;3.712;2023-05-07T00:13:09;17;74
74458;SHT31;62896;51.032;3.712;2023-05-07T00:16:29;17;75
74458;SHT31;62896;51.032;3.712;2023-05-07T00:19:49;17;75
74458;SHT31;62896;51.032;3.712;2023-05-07T00:23:09;17;75
74458;SHT31;62896;51.032;3.712;2023-05-07T00:26:29;16.9;75
74458;SHT31;62896;51.032;3.712;2023-05-07T00:29:49;16.9;75
74458;SHT31;62896;51.032;3.712;2023-05-07T00:33:09;16.9;75
74458;SHT31;62896;51.032;3.712;2023-05-07T00:36:29;16.8;75
74458;SHT31;62896;51.032;3.712;2023-05-07T00:39:49;16.8;75
74458;SHT31;62896;51.032;3.712;2023-05-07T00:43:09;16.8;75
74458;SHT31;62896;51.032;3.712;2023-05-07T00:46:29;16.8;76
74458;SHT31;62896;51.032;3.712;2023-05-07T00:49:49;16.8;76
74458;SHT31;62896;51.032;3.712;2023-05-07T00:53:09;16.8;76
74458;SHT31;62896;51.032;3.712;2023-05-07T00:56:29;16.8;76
74458;SHT31;62896;51.032;3.712;2023-05-07T00:59:50;16.8;76
74458;SHT31;62896;51.032;3.712;2023-05-07T01:03:09;16.8;76
74458;SHT31;62896;51.032;3.712;2023-05-07T01:06:29;16.7;76
74458;SHT31;62896;51.032;3.712;2023-05-07T01:09:49;16.7;76
74458;SHT31;62896;51.032;3.712;2023-05-07T01:13:09;16.7;76
74458;SHT31;62896;51.032;3.712;2023-05-07T01:16:29;16.6;77
74458;SHT31;62896;51.032;3.712;2023-05-07T01:19:49;16.6;77
74458;SHT31;62896;51.032;3.712;2023-05-07T01:23:09;16.6;77
74458;SHT31;62896;51.032;3.712;2023-05-07T01:26:29;16.5;77
74458;SHT31;62896;51.032;3.712;2023-05-07T01:29:49;16.5;77
74458;SHT31;62896;51.032;3.712;2023-05-07T01:33:10;16.5;77
74458;SHT31;62896;51.032;3.712;2023-05-07T01:36:29;16.4;78
74458;SHT31;62896;51.032;3.712;2023-05-07T01:39:49;16.4;78
74458;SHT31;62896;51.032;3.712;2023-05-07T01:43:09;16.4;78
74458;SHT31;62896;51.032;3.712;2023-05-07T01:46:29;16.3;78
74458;SHT31;62896;51.032;3.712;2023-05-07T01:49:49;16.3;78
74458;SHT31;62896;51.032;3.712;2023-05-07T01:53:09;16.3;78
74458;SHT31;62896;51.032;3.712;2023-05-07T01:56:29;16.3;77
74458;SHT31;62896;51.032;3.712;2023-05-07T01:59:49;16.3;77
74458;SHT31;62896;51.032;3.712;2023-05-07T02:03:09;16.3;77
74458;SHT31;62896;51.032;3.712;2023-05-07T02:06:29;16.2;78
74458;SHT31;62896;51.032;3.712;2023-05-07T02:09:49;16.2;78
74458;SHT31;62896;51.032;3.712;2023-05-07T02:13:09;16.2;78
74458;SHT31;62896;51.032;3.712;2023-05-07T02:16:29;16.1;78
74458;SHT31;62896;51.032;3.712;2023-05-07T02:19:49;16.1;78
74458;SHT31;62896;51.032;3.712;2023-05-07T02:23:09;16.1;78
74458;SHT31;62896;51.032;3.712;2023-05-07T02:26:29;16;79
74458;SHT31;62896;51.032;3.712;2023-05-07T02:29:49;16;79
74458;SHT31;62896;51.032;3.712;2023-05-07T02:33:09;16;79
74458;SHT31;62896;51.032;3.712;2023-05-07T02:36:29;15.9;79
74458;SHT31;62896;51.032;3.712;2023-05-07T02:39:49;15.9;79
74458;SHT31;62896;51.032;3.712;2023-05-07T02:43:09;15.9;79
74458;SHT31;62896;51.032;3.712;2023-05-07T02:46:29;15.9;79
74458;SHT31;62896;51.032;3.712;2023-05-07T02:49:49;15.9;79
74458;SHT31;62896;51.032;3.712;2023-05-07T02:53:09;15.9;79
74458;SHT31;62896;51.032;3.712;2023-05-07T02:56:29;15.9;79
74458;SHT31;62896;51.032;3.712;2023-05-07T02:59:49;15.9;79
74458;SHT31;62896;51.032;3.712;2023-05-07T03:03:09;15.9;79
74458;SHT31;62896;51.032;3.712;2023-05-07T03:06:29;15.9;79
74458;SHT31;62896;51.032;3.712;2023-05-07T03:09:49;15.9;79
74458;SHT31;62896;51.032;3.712;2023-05-07T03:13:09;15.9;79
74458;SHT31;62896;51.032;3.712;2023-05-07T03:16:29;15.9;79
74458;SHT31;62896;51.032;3.712;2023-05-07T03:19:49;15.9;79
74458;SHT31;62896;51.032;3.712;2023-05-07T03:23:09;15.9;79
74458;SHT31;62896;51.032;3.712;2023-05-07T03:26:29;15.9;79
74458;SHT31;62896;51.032;3.712;2023-05-07T03:29:49;15.9;79
74458;SHT31;62896;51.032;3.712;2023-05-07T03:33:09;15.9;79
74458;SHT31;62896;51.032;3.712;2023-05-07T03:36:29;15.9;79
74458;SHT31;62896;51.032;3.712;2023-05-07T03:39:49;15.9;79
74458;SHT31;62896;51.032;3.712;2023-05-07T03:43:09;15.9;79
74458;SHT31;62896;51.032;3.712;2023-05-07T03:46:29;15.9;79
74458;SHT31;62896;51.032;3.712;2023-05-07T03:49:49;15.9;79
74458;SHT31;62896;51.032;3.712;2023-05-07T03:53:09;15.9;79
74458;SHT31;62896;51.032;3.712;2023-05-07T03:56:29;15.9;79
74458;SHT31;62896;51.032;3.712;2023-05-07T03:59:49;15.9;79
74458;SHT31;62896;51.032;3.712;2023-05-07T04:03:09;15.9;79
74458;SHT31;62896;51.032;3.712;2023-05-07T04:06:29;15.9;80
74458;SHT31;62896;51.032;3.712;2023-05-07T04:09:49;15.9;80
74458;SHT31;62896;51.032;3.712;2023-05-07T04:13:09;15.9;80
74458;SHT31;62896;51.032;3.712;2023-05-07T04:16:29;15.8;81
74458;SHT31;62896;51.032;3.712;2023-05-07T04:19:49;15.8;81
74458;SHT31;62896;51.032;3.712;2023-05-07T04:23:09;15.8;81
74458;SHT31;62896;51.032;3.712;2023-05-07T04:26:29;15.8;81
74458;SHT31;62896;51.032;3.712;2023-05-07T04:29:49;15.8;81
74458;SHT31;62896;51.032;3.712;2023-05-07T04:33:09;15.8;81
74458;SHT31;62896;51.032;3.712;2023-05-07T04:36:30;15.9;81
74458;SHT31;62896;51.032;3.712;2023-05-07T04:39:49;15.9;81
74458;SHT31;62896;51.032;3.712;2023-05-07T04:43:09;15.9;81
74458;SHT31;62896;51.032;3.712;2023-05-07T04:46:29;15.9;82
74458;SHT31;62896;51.032;3.712;2023-05-07T04:49:49;15.9;82
74458;SHT31;62896;51.032;3.712;2023-05-07T04:53:09;15.9;82
74458;SHT31;62896;51.032;3.712;2023-05-07T04:56:29;15.9;82
74458;SHT31;62896;51.032;3.712;2023-05-07T04:59:49;15.9;82
74458;SHT31;62896;51.032;3.712;2023-05-07T05:03:09;15.9;82
74458;SHT31;62896;51.032;3.712;2023-05-07T05:06:29;15.9;82
74458;SHT31;62896;51.032;3.712;2023-05-07T05:09:49;15.9;82
74458;SHT31;62896;51.032;3.712;2023-05-07T05:13:09;15.9;82
74458;SHT31;62896;51.032;3.712;2023-05-07T05:16:29;15.9;81
74458;SHT31;62896;51.032;3.712;2023-05-07T05:19:49;15.9;81
74458;SHT31;62896;51.032;3.712;2023-05-07T05:23:09;15.9;81
74458;SHT31;62896;51.032;3.712;2023-05-07T05:26:29;15.9;82
74458;SHT31;62896;51.032;3.712;2023-05-07T05:29:49;15.9;82
74458;SHT31;62896;51.032;3.712;2023-05-07T05:33:09;15.9;82
74458;SHT31;62896;51.032;3.712;2023-05-07T05:36:29;15.7;83
74458;SHT31;62896;51.032;3.712;2023-05-07T05:39:49;15.7;83
74458;SHT31;62896;51.032;3.712;2023-05-07T05:43:09;15.7;83
74458;SHT31;62896;51.032;3.712;2023-05-07T05:46:29;15.7;84
74458;SHT31;62896;51.032;3.712;2023-05-07T05:49:49;15.7;84
74458;SHT31;62896;51.032;3.712;2023-05-07T05:53:09;15.7;84
74458;SHT31;62896;51.032;3.712;2023-05-07T05:56:29;15.5;86
74458;SHT31;62896;51.032;3.712;2023-05-07T05:59:49;15.5;86
74458;SHT31;62896;51.032;3.712;2023-05-07T06:03:09;15.5;86
74458;SHT31;62896;51.032;3.712;2023-05-07T06:06:29;15.2;88
74458;SHT31;62896;51.032;3.712;2023-05-07T06:09:49;15.2;88
74458;SHT31;62896;51.032;3.712;2023-05-07T06:13:09;15.2;88
74458;SHT31;62896;51.032;3.712;2023-05-07T06:16:29;15.1;91
74458;SHT31;62896;51.032;3.712;2023-05-07T06:19:49;15.1;91
74458;SHT31;62896;51.032;3.712;2023-05-07T06:23:09;15.1;91
74458;SHT31;62896;51.032;3.712;2023-05-07T06:26:29;15.1;93
74458;SHT31;62896;51.032;3.712;2023-05-07T06:29:49;15.1;93
74458;SHT31;62896;51.032;3.712;2023-05-07T06:33:09;15.1;93
74458;SHT31;62896;51.032;3.712;2023-05-07T06:36:29;15.1;94
74458;SHT31;62896;51.032;3.712;2023-05-07T06:39:49;15.1;94
74458;SHT31;62896;51.032;3.712;2023-05-07T06:43:09;15.1;94
74458;SHT31;62896;51.032;3.712;2023-05-07T06:46:29;15.2;94
74458;SHT31;62896;51.032;3.712;2023-05-07T06:49:49;15.2;94
74458;SHT31;62896;51.032;3.712;2023-05-07T06:53:09;15.2;94
74458;SHT31;62896;51.032;3.712;2023-05-07T06:56:29;15.3;94
74458;SHT31;62896;51.032;3.712;2023-05-07T06:59:49;15.3;94
74458;SHT31;62896;51.032;3.712;2023-05-07T07:03:09;15.3;94
74458;SHT31;62896;51.032;3.712;2023-05-07T07:06:29;15.4;94
74458;SHT31;62896;51.032;3.712;2023-05-07T07:09:49;15.4;94
74458;SHT31;62896;51.032;3.712;2023-05-07T07:13:09;15.4;94
74458;SHT31;62896;51.032;3.712;2023-05-07T07:16:29;15.5;94
74458;SHT31;62896;51.032;3.712;2023-05-07T07:19:49;15.5;94
74458;SHT31;62896;51.032;3.712;2023-05-07T07:23:09;15.5;94
74458;SHT31;62896;51.032;3.712;2023-05-07T07:26:29;15.6;93
74458;SHT31;62896;51.032;3.712;2023-05-07T07:29:49;15.6;93
74458;SHT31;62896;51.032;3.712;2023-05-07T07:33:09;15.6;93
74458;SHT31;62896;51.032;3.712;2023-05-07T07:36:29;15.6;94
74458;SHT31;62896;51.032;3.712;2023-05-07T07:39:49;15.6;94
74458;SHT31;62896;51.032;3.712;2023-05-07T07:43:09;15.6;94
74458;SHT31;62896;51.032;3.712;2023-05-07T07:46:29;15.7;94
74458;SHT31;62896;51.032;3.712;2023-05-07T07:49:49;15.7;94
74458;SHT31;62896;51.032;3.712;2023-05-07T07:53:09;15.7;94
74458;SHT31;62896;51.032;3.712;2023-05-07T07:56:29;15.7;94
74458;SHT31;62896;51.032;3.712;2023-05-07T07:59:50;15.7;94
74458;SHT31;62896;51.032;3.712;2023-05-07T08:03:09;15.7;94
74458;SHT31;62896;51.032;3.712;2023-05-07T08:06:29;15.6;94
74458;SHT31;62896;51.032;3.712;2023-05-07T08:09:49;15.6;94
74458;SHT31;62896;51.032;3.712;2023-05-07T08:13:09;15.6;94
74458;SHT31;62896;51.032;3.712;2023-05-07T08:16:29;15.7;94
74458;SHT31;62896;51.032;3.712;2023-05-07T08:19:49;15.7;94
74458;SHT31;62896;51.032;3.712;2023-05-07T08:23:09;15.7;94
74458;SHT31;62896;51.032;3.712;2023-05-07T08:26:29;15.8;94
74458;SHT31;62896;51.032;3.712;2023-05-07T08:29:49;15.8;94
74458;SHT31;62896;51.032;3.712;2023-05-07T08:33:09;15.8;94
74458;SHT31;62896;51.032;3.712;2023-05-07T08:36:29;15.9;93
74458;SHT31;62896;51.032;3.712;2023-05-07T08:39:49;15.9;93
74458;SHT31;62896;51.032;3.712;2023-05-07T08:43:10;15.9;93
74458;SHT31;62896;51.032;3.712;2023-05-07T08:46:31;16;93
74458;SHT31;62896;51.032;3.712;2023-05-07T08:49:49;16;93
74458;SHT31;62896;51.032;3.712;2023-05-07T08:53:09;16;93
74458;SHT31;62896;51.032;3.712;2023-05-07T08:56:29;16.2;92
74458;SHT31;62896;51.032;3.712;2023-05-07T08:59:50;16.2;92
74458;SHT31;62896;51.032;3.712;2023-05-07T09:03:10;16.2;92
74458;SHT31;62896;51.032;3.712;2023-05-07T09:06:30;16.4;92
74458;SHT31;62896;51.032;3.712;2023-05-07T09:09:50;16.4;92
74458;SHT31;62896;51.032;3.712;2023-05-07T09:13:09;16.4;92
74458;SHT31;62896;51.032;3.712;2023-05-07T09:16:30;16.6;92
74458;SHT31;62896;51.032;3.712;2023-05-07T09:19:50;16.6;92
74458;SHT31;62896;51.032;3.712;2023-05-07T09:23:10;16.6;92
74458;SHT31;62896;51.032;3.712;2023-05-07T09:26:30;16.7;90
74458;SHT31;62896;51.032;3.712;2023-05-07T09:29:50;16.7;90
74458;SHT31;62896;51.032;3.712;2023-05-07T09:33:10;16.7;90
74458;SHT31;62896;51.032;3.712;2023-05-07T09:36:31;16.9;90
74458;SHT31;62896;51.032;3.712;2023-05-07T09:39:50;16.9;90
74458;SHT31;62896;51.032;3.712;2023-05-07T09:43:10;16.9;90
74458;SHT31;62896;51.032;3.712;2023-05-07T09:46:30;17.1;90
74458;SHT31;62896;51.032;3.712;2023-05-07T09:49:50;17.1;90
74458;SHT31;62896;51.032;3.712;2023-05-07T09:53:10;17.1;90
74458;SHT31;62896;51.032;3.712;2023-05-07T09:56:30;17.3;89
74458;SHT31;62896;51.032;3.712;2023-05-07T09:59:50;17.3;89
74458;SHT31;62896;51.032;3.712;2023-05-07T10:03:10;17.3;89
74458;SHT31;62896;51.032;3.712;2023-05-07T10:06:30;17.5;89
74458;SHT31;62896;51.032;3.712;2023-05-07T10:09:50;17.5;89
74458;SHT31;62896;51.032;3.712;2023-05-07T10:13:10;17.5;89
74458;SHT31;62896;51.032;3.712;2023-05-07T10:16:30;17.5;88
74458;SHT31;62896;51.032;3.712;2023-05-07T10:19:50;17.5;88
74458;SHT31;62896;51.032;3.712;2023-05-07T10:23:10;17.5;88
74458;SHT31;62896;51.032;3.712;2023-05-07T10:26:30;17.7;88
74458;SHT31;62896;51.032;3.712;2023-05-07T10:29:51;17.7;88
74458;SHT31;62896;51.032;3.712;2023-05-07T10:33:10;17.7;88
74458;SHT31;62896;51.032;3.712;2023-05-07T10:36:30;17.9;87
74458;SHT31;62896;51.032;3.712;2023-05-07T10:39:50;17.9;87
74458;SHT31;62896;51.032;3.712;2023-05-07T10:43:10;17.9;87
74458;SHT31;62896;51.032;3.712;2023-05-07T10:46:30;18.2;86
74458;SHT31;62896;51.032;3.712;2023-05-07T10:50:20;18.2;86
74458;SHT31;62896;51.032;3.712;2023-05-07T10:53:25;18.2;86
74458;SHT31;62896;51.032;3.712;2023-05-07T10:56:30;18.1;86
74458;SHT31;62896;51.032;3.712;2023-05-07T10:59:50;18.1;86
74458;SHT31;62896;51.032;3.712;2023-05-07T11:03:10;18.1;86
74458;SHT31;62896;51.032;3.712;2023-05-07T11:06:30;18.4;84
74458;SHT31;62896;51.032;3.712;2023-05-07T11:09:59;18.4;84
74458;SHT31;62896;51.032;3.712;2023-05-07T11:13:10;18.4;84
74458;SHT31;62896;51.032;3.712;2023-05-07T11:16:30;18.5;84
74458;SHT31;62896;51.032;3.712;2023-05-07T11:19:50;18.5;84
74458;SHT31;62896;51.032;3.712;2023-05-07T11:23:17;18.5;84
74458;SHT31;62896;51.032;3.712;2023-05-07T11:26:30;18.5;84
74458;SHT31;62896;51.032;3.712;2023-05-07T11:29:50;18.5;84
74458;SHT31;62896;51.032;3.712;2023-05-07T11:33:10;18.5;84
74458;SHT31;62896;51.032;3.712;2023-05-07T11:36:30;18.8;83
74458;SHT31;62896;51.032;3.712;2023-05-07T11:39:50;18.8;83
74458;SHT31;62896;51.032;3.712;2023-05-07T11:43:10;18.8;83
74458;SHT31;62896;51.032;3.712;2023-05-07T11:46:30;18.8;83
74458;SHT31;62896;51.032;3.712;2023-05-07T11:49:50;18.8;83
74458;SHT31;62896;51.032;3.712;2023-05-07T11:53:10;18.8;83
74458;SHT31;62896;51.032;3.712;2023-05-07T11:56:33;18.6;83
74458;SHT31;62896;51.032;3.712;2023-05-07T11:59:52;18.6;83
74458;SHT31;62896;51.032;3.712;2023-05-07T12:03:10;18.6;83
74458;SHT31;62896;51.032;3.712;2023-05-07T12:06:30;19.1;81
74458;SHT31;62896;51.032;3.712;2023-05-07T12:09:50;19.1;81
74458;SHT31;62896;51.032;3.712;2023-05-07T12:13:17;19.1;81
74458;SHT31;62896;51.032;3.712;2023-05-07T12:16:30;19.5;79
74458;SHT31;62896;51.032;3.712;2023-05-07T12:19:50;19.5;79
74458;SHT31;62896;51.032;3.712;2023-05-07T12:23:10;19.5;79
74458;SHT31;62896;51.032;3.712;2023-05-07T12:26:30;19.8;78
74458;SHT31;62896;51.032;3.712;2023-05-07T12:29:50;19.8;78
74458;SHT31;62896;51.032;3.712;2023-05-07T12:33:10;19.8;78
74458;SHT31;62896;51.032;3.712;2023-05-07T12:36:36;20;77
74458;SHT31;62896;51.032;3.712;2023-05-07T12:39:59;20;77
74458;SHT31;62896;51.032;3.712;2023-05-07T12:43:14;20;77
74458;SHT31;62896;51.032;3.712;2023-05-07T12:46:30;20.5;74
74458;SHT31;62896;51.032;3.712;2023-05-07T12:49:50;20.5;74
74458;SHT31;62896;51.032;3.712;2023-05-07T12:53:10;20.5;74
74458;SHT31;62896;51.032;3.712;2023-05-07T12:56:30;20.5;74
74458;SHT31;62896;51.032;3.712;2023-05-07T12:59:50;20.5;74
74458;SHT31;62896;51.032;3.712;2023-05-07T13:03:10;20.5;74
74458;SHT31;62896;51.032;3.712;2023-05-07T13:06:30;20.5;73
74458;SHT31;62896;51.032;3.712;2023-05-07T13:09:50;20.5;73
74458;SHT31;62896;51.032;3.712;2023-05-07T13:13:10;20.5;73
74458;SHT31;62896;51.032;3.712;2023-05-07T13:16:30;20.6;72
74458;SHT31;62896;51.032;3.712;2023-05-07T13:19:50;20.6;72
74458;SHT31;62896;51.032;3.712;2023-05-07T13:23:10;20.6;72
74458;SHT31;62896;51.032;3.712;2023-05-07T13:26:30;21;71
74458;SHT31;62896;51.032;3.712;2023-05-07T13:29:50;21;71
74458;SHT31;62896;51.032;3.712;2023-05-07T13:33:10;21;71
74458;SHT31;62896;51.032;3.712;2023-05-07T13:36:30;21.5;70
74458;SHT31;62896;51.032;3.712;2023-05-07T13:39:50;21.5;70
74458;SHT31;62896;51.032;3.712;2023-05-07T13:43:10;21.5;70
74458;SHT31;62896;51.032;3.712;2023-05-07T13:46:30;21.6;68
74458;SHT31;62896;51.032;3.712;2023-05-07T13:49:50;21.6;68
74458;SHT31;62896;51.032;3.712;2023-05-07T13:53:10;21.6;68
74458;SHT31;62896;51.032;3.712;2023-05-07T13:56:30;21.1;70
74458;SHT31;62896;51.032;3.712;2023-05-07T13:59:50;21.1;70
74458;SHT31;62896;51.032;3.712;2023-05-07T14:03:10;21.1;70
74458;SHT31;62896;51.032;3.712;2023-05-07T14:06:30;20.3;72
74458;SHT31;62896;51.032;3.712;2023-05-07T14:09:50;20.3;72
74458;SHT31;62896;51.032;3.712;2023-05-07T14:13:10;20.3;72
74458;SHT31;62896;51.032;3.712;2023-05-07T14:16:30;19.7;75
74458;SHT31;62896;51.032;3.712;2023-05-07T14:19:50;19.7;75
74458;SHT31;62896;51.032;3.712;2023-05-07T14:23:10;19.7;75
74458;SHT31;62896;51.032;3.712;2023-05-07T14:26:30;19.1;81
74458;SHT31;62896;51.032;3.712;2023-05-07T14:29:50;19.1;81
74458;SHT31;62896;51.032;3.712;2023-05-07T14:33:10;19.1;81
74458;SHT31;62896;51.032;3.712;2023-05-07T14:36:30;18.2;87
74458;SHT31;62896;51.032;3.712;2023-05-07T14:39:50;18.2;87
74458;SHT31;62896;51.032;3.712;2023-05-07T14:43:10;18.2;87
74458;SHT31;62896;51.032;3.712;2023-05-07T14:46:30;18;88
74458;SHT31;62896;51.032;3.712;2023-05-07T14:49:50;18;88
74458;SHT31;62896;51.032;3.712;2023-05-07T14:53:10;18;88
74458;SHT31;62896;51.032;3.712;2023-05-07T14:56:30;17.8;88
74458;SHT31;62896;51.032;3.712;2023-05-07T14:59:50;17.8;88
74458;SHT31;62896;51.032;3.712;2023-05-07T15:03:10;17.8;88
74458;SHT31;62896;51.032;3.712;2023-05-07T15:06:30;17.9;87
74458;SHT31;62896;51.032;3.712;2023-05-07T15:09:50;17.9;87
74458;SHT31;62896;51.032;3.712;2023-05-07T15:13:10;17.9;87
74458;SHT31;62896;51.032;3.712;2023-05-07T15:16:30;18.3;86
74458;SHT31;62896;51.032;3.712;2023-05-07T15:19:50;18.3;86
74458;SHT31;62896;51.032;3.712;2023-05-07T15:23:10;18.3;86
74458;SHT31;62896;51.032;3.712;2023-05-07T15:26:30;19.1;83
74458;SHT31;62896;51.032;3.712;2023-05-07T15:29:50;19.1;83
74458;SHT31;62896;51.032;3.712;2023-05-07T15:33:10;19.1;83
74458;SHT31;62896;51.032;3.712;2023-05-07T15:36:30;19.4;82
74458;SHT31;62896;51.032;3.712;2023-05-07T15:39:50;19.4;82
74458;SHT31;62896;51.032;3.712;2023-05-07T15:43:10;19.4;82
74458;SHT31;62896;51.032;3.712;2023-05-07T15:46:30;19.5;81
74458;SHT31;62896;51.032;3.712;2023-05-07T15:49:50;19.5;81
74458;SHT31;62896;51.032;3.712;2023-05-07T15:53:10;19.5;81
74458;SHT31;62896;51.032;3.712;2023-05-07T15:56:30;19.5;80
74458;SHT31;62896;51.032;3.712;2023-05-07T15:59:50;19.5;80
74458;SHT31;62896;51.032;3.712;2023-05-07T16:03:10;19.5;80
74458;SHT31;62896;51.032;3.712;2023-05-07T16:06:30;19.3;81
74458;SHT31;62896;51.032;3.712;2023-05-07T16:09:50;19.3;81
74458;SHT31;62896;51.032;3.712;2023-05-07T16:13:10;19.3;81
74458;SHT31;62896;51.032;3.712;2023-05-07T16:16:31;19;83
74458;SHT31;62896;51.032;3.712;2023-05-07T16:19:50;19;83
74458;SHT31;62896;51.032;3.712;2023-05-07T16:23:10;19;83
74458;SHT31;62896;51.032;3.712;2023-05-07T16:26:30;19;82
74458;SHT31;62896;51.032;3.712;2023-05-07T16:29:50;19;82
74458;SHT31;62896;51.032;3.712;2023-05-07T16:33:10;19;82
74458;SHT31;62896;51.032;3.712;2023-05-07T16:36:30;19.1;82
74458;SHT31;62896;51.032;3.712;2023-05-07T16:39:50;19.1;82
74458;SHT31;62896;51.032;3.712;2023-05-07T16:43:10;19.1;82
74458;SHT31;62896;51.032;3.712;2023-05-07T16:46:30;18.8;82
74458;SHT31;62896;51.032;3.712;2023-05-07T16:49:50;18.8;82
74458;SHT31;62896;51.032;3.712;2023-05-07T16:53:10;18.8;82
74458;SHT31;62896;51.032;3.712;2023-05-07T16:56:30;18.4;86
74458;SHT31;62896;51.032;3.712;2023-05-07T16:59:50;18.4;86
74458;SHT31;62896;51.032;3.712;2023-05-07T17:03:10;18.4;86
74458;SHT31;62896;51.032;3.712;2023-05-07T17:06:30;17.8;89
74458;SHT31;62896;51.032;3.712;2023-05-07T17:09:50;17.8;89
74458;SHT31;62896;51.032;3.712;2023-05-07T17:13:10;17.8;89
74458;SHT31;62896;51.032;3.712;2023-05-07T17:16:30;17.4;91
74458;SHT31;62896;51.032;3.712;2023-05-07T17:19:50;17.4;91
74458;SHT31;62896;51.032;3.712;2023-05-07T17:23:10;17.4;91
74458;SHT31;62896;51.032;3.712;2023-05-07T17:26:30;17.3;90
74458;SHT31;62896;51.032;3.712;2023-05-07T17:29:50;17.3;90
74458;SHT31;62896;51.032;3.712;2023-05-07T17:33:10;17.3;90
74458;SHT31;62896;51.032;3.712;2023-05-07T17:36:30;17.4;91
74458;SHT31;62896;51.032;3.712;2023-05-07T17:39:50;17.4;91
74458;SHT31;62896;51.032;3.712;2023-05-07T17:43:10;17.4;91
74458;SHT31;62896;51.032;3.712;2023-05-07T17:46:30;17.4;91
74458;SHT31;62896;51.032;3.712;2023-05-07T17:49:50;17.4;91
74458;SHT31;62896;51.032;3.712;2023-05-07T17:53:10;17.4;91
74458;SHT31;62896;51.032;3.712;2023-05-07T17:56:30;17.5;92
74458;SHT31;62896;51.032;3.712;2023-05-07T17:59:50;17.5;92
74458;SHT31;62896;51.032;3.712;2023-05-07T18:03:10;17.5;92
74458;SHT31;62896;51.032;3.712;2023-05-07T18:06:30;17.4;92
74458;SHT31;62896;51.032;3.712;2023-05-07T18:09:50;17.4;92
74458;SHT31;62896;51.032;3.712;2023-05-07T18:13:10;17.4;92
74458;SHT31;62896;51.032;3.712;2023-05-07T18:16:30;17.4;89
74458;SHT31;62896;51.032;3.712;2023-05-07T18:19:50;17.4;89
74458;SHT31;62896;51.032;3.712;2023-05-07T18:23:10;17.4;89
74458;SHT31;62896;51.032;3.712;2023-05-07T18:26:30;17.4;89
74458;SHT31;62896;51.032;3.712;2023-05-07T18:29:50;17.4;89
74458;SHT31;62896;51.032;3.712;2023-05-07T18:33:11;17.4;89
74458;SHT31;62896;51.032;3.712;2023-05-07T18:36:30;17.4;89
74458;SHT31;62896;51.032;3.712;2023-05-07T18:39:50;17.4;89
74458;SHT31;62896;51.032;3.712;2023-05-07T18:43:10;17.4;89
74458;SHT31;62896;51.032;3.712;2023-05-07T18:46:30;17.6;90
74458;SHT31;62896;51.032;3.712;2023-05-07T18:49:50;17.6;90
74458;SHT31;62896;51.032;3.712;2023-05-07T18:53:10;17.6;90
74458;SHT31;62896;51.032;3.712;2023-05-07T18:56:30;17.4;91
74458;SHT31;62896;51.032;3.712;2023-05-07T18:59:51;17.4;91
74458;SHT31;62896;51.032;3.712;2023-05-07T19:03:10;17.4;91
74458;SHT31;62896;51.032;3.712;2023-05-07T19:06:30;17.3;92
74458;SHT31;62896;51.032;3.712;2023-05-07T19:09:50;17.3;92
74458;SHT31;62896;51.032;3.712;2023-05-07T19:13:10;17.3;92
74458;SHT31;62896;51.032;3.712;2023-05-07T19:16:30;17.1;92
74458;SHT31;62896;51.032;3.712;2023-05-07T19:19:50;17.1;92
74458;SHT31;62896;51.032;3.712;2023-05-07T19:23:10;17.1;92
74458;SHT31;62896;51.032;3.712;2023-05-07T19:26:30;16.9;91
74458;SHT31;62896;51.032;3.712;2023-05-07T19:29:50;16.9;91
74458;SHT31;62896;51.032;3.712;2023-05-07T19:33:10;16.9;91
74458;SHT31;62896;51.032;3.712;2023-05-07T19:36:30;16.8;90
74458;SHT31;62896;51.032;3.712;2023-05-07T19:39:51;16.8;90
74458;SHT31;62896;51.032;3.712;2023-05-07T19:43:10;16.8;90
74458;SHT31;62896;51.032;3.712;2023-05-07T19:46:30;16.7;91
74458;SHT31;62896;51.032;3.712;2023-05-07T19:49:50;16.7;91
74458;SHT31;62896;51.032;3.712;2023-05-07T19:53:10;16.7;91
74458;SHT31;62896;51.032;3.712;2023-05-07T19:56:30;16.4;93
74458;SHT31;62896;51.032;3.712;2023-05-07T19:59:50;16.4;93
74458;SHT31;62896;51.032;3.712;2023-05-07T20:03:10;16.4;93
74458;SHT31;62896;51.032;3.712;2023-05-07T20:06:30;16.2;93
74458;SHT31;62896;51.032;3.712;2023-05-07T20:09:50;16.2;93
74458;SHT31;62896;51.032;3.712;2023-05-07T20:13:10;16.2;93
74458;SHT31;62896;51.032;3.712;2023-05-07T20:16:30;16.1;93
74458;SHT31;62896;51.032;3.712;2023-05-07T20:19:50;16.1;93
74458;SHT31;62896;51.032;3.712;2023-05-07T20:23:10;16.1;93
74458;SHT31;62896;51.032;3.712;2023-05-07T20:26:30;16.1;92
74458;SHT31;62896;51.032;3.712;2023-05-07T20:29:50;16.1;92
74458;SHT31;62896;51.032;3.712;2023-05-07T20:33:10;16.1;92
74458;SHT31;62896;51.032;3.712;2023-05-07T20:36:30;16.2;92
74458;SHT31;62896;51.032;3.712;2023-05-07T20:39:50;16.2;92
74458;SHT31;62896;51.032;3.712;2023-05-07T20:43:10;16.2;92
74458;SHT31;62896;51.032;3.712;2023-05-07T20:46:30;16.2;91
74458;SHT31;62896;51.032;3.712;2023-05-07T20:49:50;16.2;91
74458;SHT31;62896;51.032;3.712;2023-05-07T20:53:10;16.2;91
74458;SHT31;62896;51.032;3.712;2023-05-07T20:56:30;16.1;91
74458;SHT31;62896;51.032;3.712;2023-05-07T20:59:50;16.1;91
74458;SHT31;62896;51.032;3.712;2023-05-07T21:03:10;16.1;91
74458;SHT31;62896;51.032;3.712;2023-05-07T21:06:30;16.1;92
74458;SHT31;62896;51.032;3.712;2023-05-07T21:09:50;16.1;92
74458;SHT31;62896;51.032;3.712;2023-05-07T21:13:10;16.1;92
74458;SHT31;62896;51.032;3.712;2023-05-07T21:16:30;15.8;94
74458;SHT31;62896;51.032;3.712;2023-05-07T21:19:50;15.8;94
74458;SHT31;62896;51.032;3.712;2023-05-07T21:23:10;15.8;94
74458;SHT31;62896;51.032;3.712;2023-05-07T21:26:30;15.5;95
74458;SHT31;62896;51.032;3.712;2023-05-07T21:29:50;15.5;95
74458;SHT31;62896;51.032;3.712;2023-05-07T21:33:10;15.5;95
74458;SHT31;62896;51.032;3.712;2023-05-07T21:36:30;15.3;95
74458;SHT31;62896;51.032;3.712;2023-05-07T21:39:50;15.3;95
74458;SHT31;62896;51.032;3.712;2023-05-07T21:43:10;15.3;95
74458;SHT31;62896;51.032;3.712;2023-05-07T21:46:30;15.1;95
74458;SHT31;62896;51.032;3.712;2023-05-07T21:49:50;15.1;95
74458;SHT31;62896;51.032;3.712;2023-05-07T21:53:10;15.1;95
74458;SHT31;62896;51.032;3.712;2023-05-07T21:56:30;15;96
74458;SHT31;62896;51.032;3.712;2023-05-07T21:59:50;15;96
74458;SHT31;62896;51.032;3.712;2023-05-07T22:03:10;15;96
74458;SHT31;62896;51.032;3.712;2023-05-07T22:06:30;14.9;96
74458;SHT31;62896;51.032;3.712;2023-05-07T22:09:50;14.9;96
74458;SHT31;62896;51.032;3.712;2023-05-07T22:13:10;14.9;96
74458;SHT31;62896;51.032;3.712;2023-05-07T22:16:30;14.7;96
74458;SHT31;62896;51.032;3.712;2023-05-07T22:19:50;14.7;96
74458;SHT31;62896;51.032;3.712;2023-05-07T22:23:10;14.7;96
74458;SHT31;62896;51.032;3.712;2023-05-07T22:26:30;14.4;96
74458;SHT31;62896;51.032;3.712;2023-05-07T22:29:50;14.4;96
74458;SHT31;62896;51.032;3.712;2023-05-07T22:33:10;14.4;96